createdAt,value
2018-07-13T00:01:44.503Z,66.73
2018-07-13T00:04:13.130Z,67.72
2018-07-13T00:06:41.760Z,67.62
2018-07-13T00:09:12.863Z,67.08
2018-07-13T00:11:42.870Z,67.43
2018-07-13T00:14:20.554Z,67.20
2018-07-13T00:16:50.558Z,66.92
2018-07-13T00:19:19.709Z,67.64
2018-07-13T00:21:48.387Z,67.81
2018-07-13T00:24:17.192Z,69.20
2018-07-13T00:26:46.007Z,69.36
2018-07-13T00:29:14.826Z,69.99
2018-07-13T00:31:44.148Z,70.04
2018-07-13T00:34:12.894Z,69.95
2018-07-13T00:36:41.474Z,69.74
2018-07-13T00:39:11.985Z,70.67
2018-07-13T00:41:40.993Z,70.36
2018-07-13T00:44:09.956Z,70.29
2018-07-13T00:46:38.715Z,70.13
2018-07-13T00:49:08.306Z,70.66
2018-07-13T00:51:36.938Z,70.61
2018-07-13T00:54:05.964Z,70.94
2018-07-13T00:56:34.563Z,71.27
2018-07-13T00:59:03.385Z,71.68
2018-07-13T01:01:32.101Z,72.30
2018-07-13T01:04:00.738Z,72.44
2018-07-13T01:06:29.374Z,72.26
2018-07-13T01:08:57.846Z,73.48
2018-07-13T01:11:26.450Z,73.50
2018-07-13T01:13:55.132Z,73.85
2018-07-13T01:16:24.551Z,73.91
2018-07-13T01:18:53.651Z,73.25
2018-07-13T01:21:22.156Z,73.45
2018-07-13T01:23:50.748Z,74.46
2018-07-13T01:26:19.212Z,75.19
2018-07-13T01:28:47.694Z,74.88
2018-07-13T01:31:16.730Z,74.61
2018-07-13T01:33:45.234Z,75.21
2018-07-13T01:36:13.730Z,75.33
2018-07-13T01:38:42.330Z,75.53
2018-07-13T01:41:10.901Z,75.17
2018-07-13T01:43:43.463Z,75.11
2018-07-13T01:46:12.487Z,75.09
2018-07-13T01:48:42.033Z,75.37
2018-07-13T01:51:11.157Z,75.18
2018-07-13T01:53:40.800Z,75.59
2018-07-13T01:56:10.281Z,76.16
2018-07-13T01:58:38.773Z,76.18
2018-07-13T02:01:09.150Z,76.19
2018-07-13T02:03:38.629Z,76.76
2018-07-13T02:06:08.107Z,76.51
2018-07-13T02:08:36.776Z,76.14
2018-07-13T02:11:06.580Z,75.47
2018-07-13T02:13:35.136Z,75.29
2018-07-13T02:16:04.055Z,75.82
2018-07-13T02:18:32.584Z,75.83
2018-07-13T02:21:01.676Z,75.56
2018-07-13T02:23:31.236Z,75.88
2018-07-13T02:26:00.260Z,76.07
2018-07-13T02:28:29.369Z,76.06
2018-07-13T02:30:59.045Z,75.78
2018-07-13T02:33:27.719Z,76.08
2018-07-13T02:35:56.685Z,76.11
2018-07-13T02:38:26.033Z,75.73
2018-07-13T02:40:54.525Z,75.97
2018-07-13T02:43:24.034Z,76.52
2018-07-13T02:45:54.456Z,75.77
2018-07-13T02:48:24.592Z,76.05
2018-07-13T02:50:53.225Z,76.13
2018-07-13T02:53:22.317Z,76.51
2018-07-13T02:55:50.897Z,76.41
2018-07-13T02:58:20.977Z,75.96
2018-07-13T03:00:50.858Z,75.76
2018-07-13T03:03:19.719Z,75.68
2018-07-13T03:05:49.215Z,75.48
2018-07-13T03:08:18.272Z,75.21
2018-07-13T03:10:46.831Z,74.98
2018-07-13T03:13:15.534Z,74.61
2018-07-13T03:15:44.087Z,74.72
2018-07-13T03:18:12.814Z,75.12
2018-07-13T03:20:41.675Z,75.01
2018-07-13T03:23:10.320Z,74.82
2018-07-13T03:25:39.538Z,74.84
2018-07-13T03:28:08.545Z,75.07
2018-07-13T03:30:37.140Z,74.59
2018-07-13T03:33:05.606Z,74.92
2018-07-13T03:35:34.105Z,75.09
2018-07-13T03:38:02.820Z,75.10
2018-07-13T03:40:31.504Z,74.56
2018-07-13T03:42:59.985Z,74.30
2018-07-13T03:45:28.790Z,74.30
2018-07-13T03:47:57.278Z,73.70
2018-07-13T03:50:26.189Z,73.80
2018-07-13T03:52:55.040Z,73.91
2018-07-13T03:55:24.528Z,73.31
2018-07-13T03:57:54.196Z,73.63
2018-07-13T04:00:22.802Z,74.01
2018-07-13T04:02:52.168Z,73.59
2018-07-13T04:05:20.777Z,74.03
2018-07-13T04:07:50.590Z,74.33
2018-07-13T04:10:19.166Z,74.54
2018-07-13T04:12:48.531Z,74.33
2018-07-13T04:15:18.091Z,74.30
2018-07-13T04:17:46.757Z,73.85
2018-07-13T04:20:16.470Z,73.57
2018-07-13T04:22:45.614Z,73.27
2018-07-13T04:25:15.938Z,73.08
2018-07-13T04:27:45.789Z,72.96
2018-07-13T04:30:14.859Z,73.45
2018-07-13T04:32:44.535Z,73.12
2018-07-13T04:35:14.217Z,73.49
2018-07-13T04:37:42.793Z,74.38
2018-07-13T04:40:11.336Z,73.71
2018-07-13T04:42:40.361Z,73.26
2018-07-13T04:45:08.837Z,73.25
2018-07-13T04:47:38.260Z,72.68
2018-07-13T04:50:07.349Z,73.19
2018-07-13T04:52:36.008Z,72.66
2018-07-13T04:55:04.813Z,72.87
2018-07-13T04:57:33.383Z,72.42
2018-07-13T05:00:02.061Z,72.24
2018-07-13T05:02:30.932Z,72.23
2018-07-13T05:04:59.559Z,72.34
2018-07-13T05:07:28.145Z,71.82
2018-07-13T05:09:56.888Z,71.25
2018-07-13T05:12:25.453Z,72.14
2018-07-13T05:14:54.445Z,71.28
2018-07-13T05:17:23.026Z,71.63
2018-07-13T05:19:51.524Z,71.22
2018-07-13T05:22:20.422Z,71.74
2018-07-13T05:24:50.373Z,71.35
2018-07-13T05:27:20.344Z,71.50
2018-07-13T05:29:49.091Z,71.15
2018-07-13T05:32:17.775Z,71.98
2018-07-13T05:34:46.580Z,72.04
2018-07-13T05:37:15.304Z,72.39
2018-07-13T05:39:45.333Z,72.18
2018-07-13T05:42:13.971Z,72.05
2018-07-13T05:44:43.241Z,71.52
2018-07-13T05:47:12.000Z,71.09
2018-07-13T05:49:40.694Z,71.72
2018-07-13T05:52:10.071Z,71.34
2018-07-13T05:54:38.723Z,70.92
2018-07-13T05:57:08.642Z,70.85
2018-07-13T05:59:37.495Z,70.74
2018-07-13T06:02:06.619Z,70.71
2018-07-13T06:04:35.547Z,70.91
2018-07-13T06:07:04.164Z,70.91
2018-07-13T06:09:33.426Z,70.82
2018-07-13T06:12:02.116Z,70.81
2018-07-13T06:14:31.281Z,70.59
2018-07-13T06:17:00.925Z,71.17
2018-07-13T06:19:29.532Z,71.54
2018-07-13T06:21:58.170Z,71.54
2018-07-13T06:24:26.806Z,71.56
2018-07-13T06:26:55.488Z,70.98
2018-07-13T06:29:24.178Z,71.31
2018-07-13T06:31:53.008Z,70.89
2018-07-13T06:34:23.448Z,70.75
2018-07-13T06:36:52.353Z,70.27
2018-07-13T06:39:21.901Z,70.85
2018-07-13T06:41:50.625Z,70.86
2018-07-13T06:44:19.493Z,70.12
2018-07-13T06:46:49.583Z,70.49
2018-07-13T06:49:18.952Z,70.61
2018-07-13T06:51:47.626Z,70.02
2018-07-13T06:54:16.307Z,70.26
2018-07-13T06:56:45.510Z,70.46
2018-07-13T06:59:15.719Z,70.87
2018-07-13T07:01:45.441Z,70.70
2018-07-13T07:04:24.194Z,70.30
2018-07-13T07:06:53.599Z,70.64
2018-07-13T07:09:22.754Z,70.92
2018-07-13T07:12:07.357Z,70.95
2018-07-13T07:14:35.985Z,71.35
2018-07-13T07:17:04.635Z,71.03
2018-07-13T07:19:34.126Z,71.78
2018-07-13T07:22:03.785Z,71.85
2018-07-13T07:24:32.471Z,71.50
2018-07-13T07:27:01.248Z,71.63
2018-07-13T07:29:32.329Z,71.54
2018-07-13T07:32:00.978Z,71.56
2018-07-13T07:34:30.386Z,71.14
2018-07-13T07:36:58.991Z,71.47
2018-07-13T07:39:28.339Z,71.42
2018-07-13T07:41:57.005Z,71.53
2018-07-13T07:44:25.692Z,71.73
2018-07-13T07:46:54.381Z,71.45
2018-07-13T07:49:23.241Z,71.17
2018-07-13T07:51:53.347Z,70.87
2018-07-13T07:54:22.581Z,70.64
2018-07-13T07:56:51.098Z,71.06
2018-07-13T07:59:20.937Z,71.00
2018-07-13T08:01:49.549Z,71.16
2018-07-13T08:04:18.115Z,70.98
2018-07-13T08:06:47.384Z,70.77
2018-07-13T08:09:16.011Z,70.82
2018-07-13T08:11:44.962Z,71.80
2018-07-13T08:14:14.836Z,71.53
2018-07-13T08:16:43.499Z,71.03
2018-07-13T08:19:12.983Z,70.36
2018-07-13T08:21:44.945Z,70.49
2018-07-13T08:24:19.162Z,70.35
2018-07-13T08:26:48.232Z,70.40
2018-07-13T08:29:19.017Z,70.48
2018-07-13T08:31:47.582Z,70.64
2018-07-13T08:34:16.203Z,70.57
2018-07-13T08:36:45.286Z,70.52
2018-07-13T08:39:14.186Z,70.52
2018-07-13T08:41:43.396Z,69.93
2018-07-13T08:44:12.616Z,70.70
2018-07-13T08:46:41.338Z,70.63
2018-07-13T08:49:10.066Z,70.65
2018-07-13T08:51:38.917Z,70.30
2018-07-13T08:54:07.758Z,70.09
2018-07-13T08:56:36.530Z,69.64
2018-07-13T08:59:05.349Z,70.46
2018-07-13T09:01:34.135Z,70.30
2018-07-13T09:04:02.808Z,69.81
2018-07-13T09:06:31.522Z,69.99
2018-07-13T09:09:01.273Z,70.23
2018-07-13T09:11:31.185Z,69.63
2018-07-13T09:14:01.309Z,69.60
2018-07-13T09:16:30.515Z,69.33
2018-07-13T09:19:00.220Z,69.29
2018-07-13T09:21:29.115Z,68.99
2018-07-13T09:23:58.865Z,69.09
2018-07-13T09:26:27.574Z,68.95
2018-07-13T09:28:56.316Z,69.88
2018-07-13T09:31:24.907Z,69.15
2018-07-13T09:33:53.559Z,68.83
2018-07-13T09:36:23.201Z,68.89
2018-07-13T09:38:51.807Z,68.79
2018-07-13T09:41:20.469Z,68.70
2018-07-13T09:43:49.198Z,69.86
2018-07-13T09:46:17.894Z,69.12
2018-07-13T09:48:46.853Z,69.04
2018-07-13T09:51:15.503Z,69.35
2018-07-13T09:53:44.198Z,69.48
2018-07-13T09:56:12.742Z,69.21
2018-07-13T09:58:45.029Z,69.14
2018-07-13T10:01:19.710Z,69.40
2018-07-13T10:03:50.794Z,68.97
2018-07-13T10:06:20.759Z,68.61
2018-07-13T10:08:51.077Z,68.29
2018-07-13T10:11:19.762Z,68.80
2018-07-13T10:13:49.219Z,69.55
2018-07-13T10:16:18.856Z,68.98
2018-07-13T10:18:48.593Z,69.52
2018-07-13T10:21:17.394Z,69.17
2018-07-13T10:23:46.722Z,68.88
2018-07-13T10:26:21.761Z,68.54
2018-07-13T10:28:50.666Z,69.27
2018-07-13T10:31:19.904Z,68.12
2018-07-13T10:33:50.275Z,69.01
2018-07-13T10:36:20.453Z,68.33
2018-07-13T10:38:49.223Z,67.69
2018-07-13T10:41:17.850Z,67.98
2018-07-13T10:43:47.166Z,67.30
2018-07-13T10:46:15.786Z,66.59
2018-07-13T10:48:45.334Z,66.63
2018-07-13T10:51:14.644Z,66.14
2018-07-13T10:53:43.262Z,66.21
2018-07-13T10:56:11.779Z,66.50
2018-07-13T10:58:40.990Z,66.21
2018-07-13T11:01:10.490Z,65.62
2018-07-13T11:03:39.518Z,65.75
2018-07-13T11:06:08.301Z,65.69
2018-07-13T11:08:36.900Z,65.20
2018-07-13T11:11:05.458Z,65.24
2018-07-13T11:13:34.282Z,64.86
2018-07-13T11:16:06.235Z,65.50
2018-07-13T11:18:35.598Z,65.69
2018-07-13T11:21:05.084Z,65.67
2018-07-13T11:23:33.677Z,64.57
2018-07-13T11:26:02.445Z,64.03
2018-07-13T11:28:32.009Z,63.03
2018-07-13T11:31:00.571Z,63.14
2018-07-13T11:33:30.017Z,63.06
2018-07-13T11:35:58.667Z,63.12
2018-07-13T11:38:28.226Z,63.18
2018-07-13T11:40:56.797Z,62.39
2018-07-13T11:43:25.330Z,62.70
2018-07-13T11:45:55.554Z,62.64
2018-07-13T11:48:24.205Z,62.62
2018-07-13T11:50:52.813Z,61.89
2018-07-13T11:53:21.396Z,62.00
2018-07-13T11:55:50.030Z,61.07
2018-07-13T11:58:19.682Z,61.58
2018-07-13T12:00:49.206Z,60.96
2018-07-13T12:03:18.141Z,61.36
2018-07-13T12:05:46.651Z,60.80
2018-07-13T12:08:15.539Z,61.44
2018-07-13T12:10:46.697Z,60.95
2018-07-13T12:13:15.468Z,60.89
2018-07-13T12:15:45.760Z,60.29
2018-07-13T12:18:14.330Z,59.16
2018-07-13T12:20:43.948Z,59.14
2018-07-13T12:23:12.953Z,58.63
2018-07-13T12:25:43.228Z,58.32
2018-07-13T12:28:12.056Z,58.86
2018-07-13T12:30:40.606Z,58.81
2018-07-13T12:33:09.133Z,58.16
2018-07-13T12:35:37.677Z,58.50
2018-07-13T12:38:06.572Z,57.86
2018-07-13T12:40:36.263Z,56.88
2018-07-13T12:43:04.865Z,56.79
2018-07-13T12:45:34.707Z,56.88
2018-07-13T12:48:03.486Z,55.76
2018-07-13T12:50:32.661Z,54.18
2018-07-13T12:53:01.229Z,53.88
2018-07-13T12:55:30.811Z,54.20
2018-07-13T12:57:59.279Z,53.86
2018-07-13T13:00:27.841Z,54.43
2018-07-13T13:02:56.975Z,53.14
2018-07-13T13:05:26.160Z,53.01
2018-07-13T13:07:54.751Z,53.28
2018-07-13T13:10:24.792Z,52.97
2018-07-13T13:12:53.728Z,53.04
2018-07-13T13:15:22.391Z,52.29
2018-07-13T13:17:50.934Z,53.30
2018-07-13T13:20:19.428Z,52.66
2018-07-13T13:22:48.422Z,52.58
2018-07-13T13:25:17.084Z,51.81
2018-07-13T13:27:45.568Z,50.95
2018-07-13T13:30:14.047Z,50.94
2018-07-13T13:32:42.697Z,50.94
2018-07-13T13:35:11.672Z,50.33
2018-07-13T13:37:40.890Z,50.42
2018-07-13T13:40:09.488Z,49.79
2018-07-13T13:42:39.761Z,50.17
2018-07-13T13:45:09.000Z,49.69
2018-07-13T13:47:38.012Z,49.43
2018-07-13T13:50:07.108Z,49.21
2018-07-13T13:52:38.212Z,48.78
2018-07-13T13:55:07.343Z,48.82
2018-07-13T13:57:36.335Z,49.17
2018-07-13T14:00:05.639Z,48.22
2018-07-13T14:02:34.821Z,48.38
2018-07-13T14:05:03.675Z,48.30
2018-07-13T14:07:32.710Z,47.58
2018-07-13T14:10:01.351Z,47.72
2018-07-13T14:12:31.676Z,47.46
2018-07-13T14:15:00.487Z,47.55
2018-07-13T14:17:30.078Z,47.63
2018-07-13T14:19:58.652Z,47.62
2018-07-13T14:22:27.536Z,47.52
2018-07-13T14:24:56.521Z,47.44
2018-07-13T14:27:25.929Z,46.98
2018-07-13T14:29:54.708Z,46.44
2018-07-13T14:32:23.249Z,47.11
2018-07-13T14:34:52.148Z,47.15
2018-07-13T14:37:20.734Z,46.71
2018-07-13T14:39:49.293Z,46.68
2018-07-13T14:42:17.974Z,46.89
2018-07-13T14:44:46.607Z,45.63
2018-07-13T14:47:15.984Z,45.38
2018-07-13T14:49:44.883Z,45.92
2018-07-13T14:53:19.148Z,46.22
2018-07-13T14:55:48.718Z,44.73
2018-07-13T14:58:17.489Z,45.43
2018-07-13T15:00:48.337Z,45.08
2018-07-13T15:03:17.515Z,44.61
2018-07-13T15:05:46.786Z,45.03
2018-07-13T15:08:15.973Z,45.41
2018-07-13T15:10:44.838Z,45.35
2018-07-13T15:13:13.529Z,45.55
2018-07-13T15:15:42.579Z,44.54
2018-07-13T15:18:15.676Z,44.10
2018-07-13T15:20:44.530Z,44.12
2018-07-13T15:23:13.270Z,43.51
2018-07-13T15:25:41.955Z,43.31
2018-07-13T15:28:11.558Z,43.19
2018-07-13T15:30:40.388Z,42.59
2018-07-13T15:33:08.987Z,42.51
2018-07-13T15:35:38.211Z,41.53
2018-07-13T15:38:07.024Z,40.61
2018-07-13T15:40:35.654Z,40.27
2018-07-13T15:43:04.460Z,40.51
2018-07-13T15:45:33.261Z,40.53
2018-07-13T15:48:02.926Z,41.69
2018-07-13T15:50:32.189Z,40.86
2018-07-13T15:53:01.028Z,42.25
2018-07-13T15:55:35.009Z,41.94
2018-07-13T15:58:04.093Z,42.62
2018-07-13T16:00:33.487Z,42.87
2018-07-13T16:03:04.620Z,44.02
2018-07-13T16:05:34.348Z,44.72
2018-07-13T16:08:04.654Z,43.64
2018-07-13T16:10:33.314Z,43.29
2018-07-13T16:13:02.191Z,42.48
2018-07-13T16:15:31.440Z,41.14
2018-07-13T16:18:00.249Z,39.46
2018-07-13T16:20:29.047Z,39.41
2018-07-13T16:22:57.943Z,39.82
2018-07-13T16:25:26.565Z,41.76
2018-07-13T16:27:55.284Z,39.99
2018-07-13T16:30:26.105Z,40.35
2018-07-13T16:32:55.646Z,40.46
2018-07-13T16:35:24.473Z,40.59
2018-07-13T16:37:54.050Z,39.80
2018-07-13T16:40:22.785Z,39.74
2018-07-13T16:42:51.977Z,40.39
2018-07-13T16:45:20.707Z,40.65
2018-07-13T16:47:49.342Z,41.09
2018-07-13T16:50:18.853Z,39.95
2018-07-13T16:52:47.798Z,40.38
2018-07-13T16:55:16.408Z,40.39
2018-07-13T16:57:45.253Z,40.62
2018-07-13T17:00:15.758Z,40.14
2018-07-13T17:02:44.948Z,40.23
2018-07-13T17:05:13.620Z,40.37
2018-07-13T17:07:43.046Z,40.63
2018-07-13T17:10:12.189Z,41.57
2018-07-13T17:12:40.755Z,41.89
2018-07-13T17:15:10.186Z,41.95
2018-07-13T17:17:38.737Z,41.02
2018-07-13T17:20:07.565Z,41.38
2018-07-13T17:22:37.832Z,41.94
2018-07-13T17:25:06.794Z,41.35
2018-07-13T17:27:35.608Z,42.21
2018-07-13T17:30:05.289Z,42.72
2018-07-13T17:32:33.875Z,41.82
2018-07-13T17:35:02.620Z,41.75
2018-07-13T17:37:31.780Z,42.14
2018-07-13T17:40:00.772Z,43.13
2018-07-13T17:42:30.272Z,43.60
2018-07-13T17:44:58.949Z,43.75
2018-07-13T17:47:27.993Z,43.75
2018-07-13T17:49:56.907Z,43.79
2018-07-13T17:52:25.483Z,43.92
2018-07-13T17:54:54.129Z,45.26
2018-07-13T17:57:22.669Z,45.69
2018-07-13T17:59:51.488Z,45.48
2018-07-13T18:02:20.419Z,46.05
2018-07-13T18:04:49.010Z,47.24
2018-07-13T18:07:18.021Z,47.64
2018-07-13T18:09:46.922Z,45.81
2018-07-13T18:12:15.840Z,45.57
2018-07-13T18:14:45.766Z,46.34
2018-07-13T18:17:14.646Z,46.56
2018-07-13T18:19:44.046Z,46.92
2018-07-13T18:22:13.428Z,48.00
2018-07-13T18:24:42.046Z,48.40
2018-07-13T18:27:11.529Z,48.09
2018-07-13T18:29:40.093Z,48.59
2018-07-13T18:32:08.714Z,48.00
2018-07-13T18:34:37.366Z,48.93
2018-07-13T18:37:05.958Z,48.36
2018-07-13T18:39:34.527Z,48.64
2018-07-13T18:42:04.306Z,49.54
2018-07-13T18:44:32.813Z,49.52
2018-07-13T18:47:02.855Z,49.60
2018-07-13T18:49:31.490Z,51.07
2018-07-13T18:52:00.108Z,49.38
2018-07-13T18:54:28.745Z,50.89
2018-07-13T18:56:57.872Z,50.36
2018-07-13T18:59:26.595Z,51.47
2018-07-13T19:01:55.737Z,51.63
2018-07-13T19:04:25.622Z,51.37
2018-07-13T19:06:54.414Z,51.06
2018-07-13T19:09:23.387Z,51.34
2018-07-13T19:11:52.075Z,52.12
2018-07-13T19:14:21.338Z,51.69
2018-07-13T19:16:51.634Z,52.12
2018-07-13T19:19:20.729Z,52.12
2018-07-13T19:21:49.353Z,51.77
2018-07-13T19:24:19.496Z,53.04
2018-07-13T19:26:48.561Z,53.12
2018-07-13T19:29:18.745Z,52.95
2018-07-13T19:31:50.278Z,53.54
2018-07-13T19:34:19.015Z,53.57
2018-07-13T19:36:47.972Z,53.83
2018-07-13T19:39:17.795Z,54.45
2018-07-13T19:41:47.517Z,54.85
2018-07-13T19:44:16.702Z,54.88
2018-07-13T19:46:46.609Z,55.02
2018-07-13T19:49:15.934Z,55.04
2018-07-13T19:51:45.803Z,55.35
2018-07-13T19:54:14.492Z,56.41
2018-07-13T19:56:44.042Z,56.61
2018-07-13T19:59:12.973Z,56.97
2018-07-13T20:01:43.366Z,56.40
2018-07-13T20:04:15.509Z,57.20
2018-07-13T20:06:44.013Z,56.81
2018-07-13T20:09:12.874Z,56.86
2018-07-13T20:11:45.080Z,56.89
2018-07-13T20:14:14.313Z,57.42
2018-07-13T20:16:42.971Z,57.55
2018-07-13T20:19:11.425Z,57.84
2018-07-13T20:21:40.369Z,57.71
2018-07-13T20:24:10.640Z,57.80
2018-07-13T20:26:39.541Z,58.09
2018-07-13T20:29:08.074Z,58.21
2018-07-13T20:31:38.345Z,59.03
2018-07-13T20:34:07.014Z,59.18
2018-07-13T20:36:36.520Z,58.57
2018-07-13T20:39:07.010Z,59.08
2018-07-13T20:41:35.889Z,59.09
2018-07-13T20:44:05.012Z,59.34
2018-07-13T20:46:33.696Z,59.70
2018-07-13T20:49:03.562Z,59.24
2018-07-13T20:51:34.328Z,60.17
2018-07-13T20:54:03.470Z,59.61
2018-07-13T20:56:32.174Z,59.96
2018-07-13T20:59:01.825Z,60.55
2018-07-13T21:01:31.379Z,60.91
2018-07-13T21:04:00.056Z,60.68
2018-07-13T21:06:29.906Z,61.37
2018-07-13T21:08:58.781Z,61.92
2018-07-13T21:11:27.335Z,61.19
2018-07-13T21:13:56.840Z,61.84
2018-07-13T21:16:25.454Z,61.62
2018-07-13T21:18:54.494Z,62.41
2018-07-13T21:21:25.242Z,62.20
2018-07-13T21:23:56.160Z,62.85
2018-07-13T21:26:25.216Z,62.90
2018-07-13T21:28:54.585Z,63.38
2018-07-13T21:31:23.212Z,62.68
2018-07-13T21:33:52.201Z,62.70
2018-07-13T21:36:20.805Z,63.15
2018-07-13T21:38:49.958Z,63.40
2018-07-13T21:41:18.836Z,63.78
2018-07-13T21:43:47.864Z,63.43
2018-07-13T21:46:16.870Z,63.63
2018-07-13T21:48:45.705Z,63.74
2018-07-13T21:51:14.417Z,64.45
2018-07-13T21:53:45.099Z,64.37
2018-07-13T21:56:14.909Z,63.67
2018-07-13T21:58:44.200Z,63.98
2018-07-13T22:01:14.335Z,63.84
2018-07-13T22:03:43.539Z,64.14
2018-07-13T22:06:12.225Z,64.42
2018-07-13T22:08:41.446Z,64.50
2018-07-13T22:11:11.624Z,64.98
2018-07-13T22:13:41.370Z,64.81
2018-07-13T22:16:10.746Z,65.70
2018-07-13T22:18:39.342Z,65.28
2018-07-13T22:21:08.307Z,64.59
2018-07-13T22:23:37.226Z,65.17
2018-07-13T22:26:06.654Z,66.16
2018-07-13T22:28:35.470Z,66.06
2018-07-13T22:31:03.960Z,66.26
2018-07-13T22:33:33.442Z,67.01
2018-07-13T22:36:02.540Z,66.90
2018-07-13T22:38:31.412Z,67.40
2018-07-13T22:41:00.640Z,67.62
2018-07-13T22:43:29.487Z,68.42
2018-07-13T22:45:58.543Z,68.47
2018-07-13T22:48:27.087Z,68.22
2018-07-13T22:50:55.675Z,68.49
2018-07-13T22:53:25.212Z,69.20
2018-07-13T22:55:54.221Z,68.86
2018-07-13T22:58:23.399Z,69.10
2018-07-13T23:00:51.854Z,68.75
2018-07-13T23:03:20.671Z,69.00
2018-07-13T23:05:49.209Z,69.06
2018-07-13T23:08:18.320Z,69.18
2018-07-13T23:10:46.904Z,68.53
2018-07-13T23:13:15.571Z,68.31
2018-07-13T23:15:44.058Z,68.25
2018-07-13T23:18:12.730Z,68.60
2018-07-13T23:20:42.637Z,68.48
2018-07-13T23:23:12.614Z,68.55
2018-07-13T23:25:41.239Z,68.25
2018-07-13T23:28:09.789Z,68.50
2018-07-13T23:30:39.329Z,68.29
2018-07-13T23:33:07.829Z,67.92
2018-07-13T23:35:36.476Z,67.86
2018-07-13T23:38:05.471Z,67.52
2018-07-13T23:40:37.925Z,68.20
2018-07-13T23:43:06.716Z,68.06
2018-07-13T23:45:37.299Z,67.70
2018-07-13T23:48:07.528Z,67.76
2018-07-13T23:50:36.139Z,67.42
2018-07-13T23:53:06.518Z,68.01
2018-07-13T23:55:36.306Z,67.63
2018-07-13T23:58:05.208Z,67.38
